sensor_id;sensor_type;location;lat;lon;timestamp;pressure;altitude;pressure_sealevel;temperature;humidity
6680;BME280;3376;42.664;23.346;2023-10-13T00:02:11;95042.09;;;12.54;100.00
6680;BME280;3376;42.664;23.346;2023-10-13T00:04:39;95037.09;;;12.53;100.00
6680;BME280;3376;42.664;23.346;2023-10-13T00:07:08;95028.41;;;12.60;100.00
6680;BME280;3376;42.664;23.346;2023-10-13T00:09:37;95017.78;;;12.47;100.00
6680;BME280;3376;42.664;23.346;2023-10-13T00:12:05;95033.38;;;12.47;100.00
6680;BME280;3376;42.664;23.346;2023-10-13T00:14:34;95025.78;;;12.46;100.00
6680;BME280;3376;42.664;23.346;2023-10-13T00:17:05;95029.78;;;12.48;100.00
6680;BME280;3376;42.664;23.346;2023-10-13T00:19:41;94998.16;;;12.22;100.00
6680;BME280;3376;42.664;23.346;2023-10-13T00:22:13;95019.66;;;12.39;100.00
6680;BME280;3376;42.664;23.346;2023-10-13T00:24:42;95022.13;;;12.32;100.00
6680;BME280;3376;42.664;23.346;2023-10-13T00:27:11;95030.03;;;12.39;100.00
6680;BME280;3376;42.664;23.346;2023-10-13T00:29:53;95016.31;;;12.30;100.00
6680;BME280;3376;42.664;23.346;2023-10-13T00:32:42;95016.31;;;12.30;100.00
6680;BME280;3376;42.664;23.346;2023-10-13T00:35:10;95023.56;;;12.35;100.00
6680;BME280;3376;42.664;23.346;2023-10-13T00:37:50;95030.72;;;12.33;100.00
6680;BME280;3376;42.664;23.346;2023-10-13T00:40:19;95008.44;;;12.16;100.00
6680;BME280;3376;42.664;23.346;2023-10-13T00:43:07;95018.53;;;12.11;100.00
6680;BME280;3376;42.664;23.346;2023-10-13T00:45:53;95036.16;;;12.23;100.00
6680;BME280;3376;42.664;23.346;2023-10-13T00:48:26;95027.44;;;12.16;100.00
6680;BME280;3376;42.664;23.346;2023-10-13T00:50:56;95021.59;;;12.14;100.00
6680;BME280;3376;42.664;23.346;2023-10-13T00:53:25;95027.78;;;12.13;100.00
6680;BME280;3376;42.664;23.346;2023-10-13T00:55:51;95023.03;;;11.94;100.00
6680;BME280;3376;42.664;23.346;2023-10-13T00:58:21;95024.91;;;12.08;100.00
6680;BME280;3376;42.664;23.346;2023-10-13T01:00:48;95013.22;;;12.04;100.00
6680;BME280;3376;42.664;23.346;2023-10-13T01:03:22;95032.63;;;12.16;100.00
6680;BME280;3376;42.664;23.346;2023-10-13T01:05:54;95042.72;;;12.11;100.00
6680;BME280;3376;42.664;23.346;2023-10-13T01:08:33;95004.84;;;11.94;100.00
6680;BME280;3376;42.664;23.346;2023-10-13T01:11:03;95007.75;;;11.99;100.00
6680;BME280;3376;42.664;23.346;2023-10-13T01:13:32;95024.94;;;12.00;100.00
6680;BME280;3376;42.664;23.346;2023-10-13T01:16:02;95036.06;;;12.09;100.00
6680;BME280;3376;42.664;23.346;2023-10-13T01:18:28;94996.78;;;11.89;100.00
6680;BME280;3376;42.664;23.346;2023-10-13T01:20:57;95041.56;;;12.14;100.00
6680;BME280;3376;42.664;23.346;2023-10-13T01:23:27;95037.00;;;12.16;100.00
6680;BME280;3376;42.664;23.346;2023-10-13T01:26:03;95039.66;;;12.08;100.00
6680;BME280;3376;42.664;23.346;2023-10-13T01:28:31;95045.06;;;11.98;100.00
6680;BME280;3376;42.664;23.346;2023-10-13T01:31:10;95037.97;;;11.92;100.00
6680;BME280;3376;42.664;23.346;2023-10-13T01:33:38;95042.34;;;11.92;100.00
6680;BME280;3376;42.664;23.346;2023-10-13T01:36:05;95037.69;;;11.87;100.00
6680;BME280;3376;42.664;23.346;2023-10-13T01:38:37;95036.06;;;11.86;100.00
6680;BME280;3376;42.664;23.346;2023-10-13T01:41:07;95030.72;;;11.79;100.00
6680;BME280;3376;42.664;23.346;2023-10-13T01:43:35;95039.34;;;11.80;100.00
6680;BME280;3376;42.664;23.346;2023-10-13T01:46:02;95044.28;;;11.67;100.00
6680;BME280;3376;42.664;23.346;2023-10-13T01:48:29;95045.22;;;11.66;100.00
6680;BME280;3376;42.664;23.346;2023-10-13T01:50:58;94884.97;;;10.68;100.00
6680;BME280;3376;42.664;23.346;2023-10-13T01:53:27;95032.56;;;11.63;100.00
6680;BME280;3376;42.664;23.346;2023-10-13T01:55:56;95046.06;;;11.58;100.00
6680;BME280;3376;42.664;23.346;2023-10-13T01:58:23;95036.47;;;11.59;100.00
6680;BME280;3376;42.664;23.346;2023-10-13T02:00:52;95019.66;;;11.47;100.00
6680;BME280;3376;42.664;23.346;2023-10-13T02:03:18;95033.56;;;11.62;100.00
6680;BME280;3376;42.664;23.346;2023-10-13T02:05:48;95004.66;;;11.34;100.00
6680;BME280;3376;42.664;23.346;2023-10-13T02:08:14;95020.50;;;11.39;100.00
6680;BME280;3376;42.664;23.346;2023-10-13T02:10:48;95018.88;;;11.38;100.00
6680;BME280;3376;42.664;23.346;2023-10-13T02:13:17;95029.41;;;11.45;100.00
6680;BME280;3376;42.664;23.346;2023-10-13T02:15:45;95032.94;;;11.52;100.00
6680;BME280;3376;42.664;23.346;2023-10-13T02:18:14;95028.38;;;11.54;100.00
6680;BME280;3376;42.664;23.346;2023-10-13T02:20:51;95010.94;;;11.40;100.00
6680;BME280;3376;42.664;23.346;2023-10-13T02:23:22;95027.44;;;11.47;100.00
6680;BME280;3376;42.664;23.346;2023-10-13T02:25:50;95025.19;;;11.44;100.00
6680;BME280;3376;42.664;23.346;2023-10-13T02:28:27;95028.31;;;11.31;100.00
6680;BME280;3376;42.664;23.346;2023-10-13T02:30:54;95027.53;;;11.31;100.00
6680;BME280;3376;42.664;23.346;2023-10-13T02:33:23;95025.41;;;11.26;100.00
6680;BME280;3376;42.664;23.346;2023-10-13T02:35:55;95031.88;;;11.30;100.00
6680;BME280;3376;42.664;23.346;2023-10-13T02:38:23;95013.78;;;11.22;100.00
6680;BME280;3376;42.664;23.346;2023-10-13T02:40:54;95007.13;;;11.20;100.00
6680;BME280;3376;42.664;23.346;2023-10-13T02:43:22;95027.53;;;11.31;100.00
6680;BME280;3376;42.664;23.346;2023-10-13T02:45:53;95019.44;;;11.26;100.00
6680;BME280;3376;42.664;23.346;2023-10-13T02:48:25;95035.31;;;11.31;100.00
6680;BME280;3376;42.664;23.346;2023-10-13T02:50:55;95041.13;;;11.33;100.00
6680;BME280;3376;42.664;23.346;2023-10-13T02:53:22;95045.50;;;11.32;100.00
6680;BME280;3376;42.664;23.346;2023-10-13T02:55:51;95051.81;;;11.30;100.00
6680;BME280;3376;42.664;23.346;2023-10-13T02:58:18;95035.66;;;11.20;100.00
6680;BME280;3376;42.664;23.346;2023-10-13T03:00:45;95053.75;;;11.28;100.00
6680;BME280;3376;42.664;23.346;2023-10-13T03:03:15;95016.06;;;11.17;100.00
6680;BME280;3376;42.664;23.346;2023-10-13T03:05:44;95052.13;;;11.35;100.00
6680;BME280;3376;42.664;23.346;2023-10-13T03:08:11;95051.19;;;11.20;100.00
6680;BME280;3376;42.664;23.346;2023-10-13T03:10:43;95042.00;;;11.17;100.00
6680;BME280;3376;42.664;23.346;2023-10-13T03:13:13;95053.78;;;11.20;100.00
6680;BME280;3376;42.664;23.346;2023-10-13T03:15:39;95049.28;;;11.14;100.00
6680;BME280;3376;42.664;23.346;2023-10-13T03:18:06;95054.94;;;11.09;100.00
6680;BME280;3376;42.664;23.346;2023-10-13T03:20:39;95066.16;;;11.02;100.00
6680;BME280;3376;42.664;23.346;2023-10-13T03:23:07;95053.84;;;10.96;100.00
6680;BME280;3376;42.664;23.346;2023-10-13T03:25:35;95055.78;;;10.94;100.00
6680;BME280;3376;42.664;23.346;2023-10-13T03:28:08;95048.00;;;10.94;100.00
6680;BME280;3376;42.664;23.346;2023-10-13T03:30:37;95043.47;;;10.96;100.00
6680;BME280;3376;42.664;23.346;2023-10-13T03:33:08;95058.06;;;10.97;100.00
6680;BME280;3376;42.664;23.346;2023-10-13T03:35:39;95042.19;;;11.00;100.00
6680;BME280;3376;42.664;23.346;2023-10-13T03:38:07;95051.91;;;10.98;100.00
6680;BME280;3376;42.664;23.346;2023-10-13T03:40:44;95047.03;;;11.03;100.00
6680;BME280;3376;42.664;23.346;2023-10-13T03:43:22;95043.78;;;11.01;100.00
6680;BME280;3376;42.664;23.346;2023-10-13T03:45:50;95039.59;;;11.00;100.00
6680;BME280;3376;42.664;23.346;2023-10-13T03:48:26;95036.22;;;10.91;100.00
6680;BME280;3376;42.664;23.346;2023-10-13T03:50:59;95038.31;;;10.88;100.00
6680;BME280;3376;42.664;23.346;2023-10-13T03:53:32;95032.16;;;10.89;100.00
6680;BME280;3376;42.664;23.346;2023-10-13T03:56:00;95028.94;;;10.87;100.00
6680;BME280;3376;42.664;23.346;2023-10-13T03:58:38;95007.84;;;10.82;100.00
6680;BME280;3376;42.664;23.346;2023-10-13T04:01:08;94786.97;;;9.62;100.00
6680;BME280;3376;42.664;23.346;2023-10-13T04:03:37;95005.75;;;10.85;100.00
6680;BME280;3376;42.664;23.346;2023-10-13T04:06:09;95004.78;;;10.86;100.00
6680;BME280;3376;42.664;23.346;2023-10-13T04:08:42;95009.50;;;10.83;100.00
6680;BME280;3376;42.664;23.346;2023-10-13T04:11:14;95016.91;;;11.02;100.00
6680;BME280;3376;42.664;23.346;2023-10-13T04:13:58;95007.50;;;11.09;100.00
6680;BME280;3376;42.664;23.346;2023-10-13T04:16:42;95006.81;;;11.15;100.00
6680;BME280;3376;42.664;23.346;2023-10-13T04:19:18;95017.19;;;11.15;100.00
6680;BME280;3376;42.664;23.346;2023-10-13T04:21:56;95020.75;;;11.14;100.00
6680;BME280;3376;42.664;23.346;2023-10-13T04:24:25;95022.53;;;11.13;100.00
6680;BME280;3376;42.664;23.346;2023-10-13T04:27:25;94993.25;;;10.89;100.00
6680;BME280;3376;42.664;23.346;2023-10-13T04:30:19;95023.22;;;10.99;100.00
6680;BME280;3376;42.664;23.346;2023-10-13T04:32:52;95027.59;;;10.91;100.00
6680;BME280;3376;42.664;23.346;2023-10-13T04:35:42;95034.41;;;11.00;100.00
6680;BME280;3376;42.664;23.346;2023-10-13T04:38:14;95035.38;;;10.99;100.00
6680;BME280;3376;42.664;23.346;2023-10-13T04:40:45;95020.50;;;10.77;100.00
6680;BME280;3376;42.664;23.346;2023-10-13T04:43:24;95020.03;;;10.73;100.00
6680;BME280;3376;42.664;23.346;2023-10-13T04:46:19;95037.94;;;10.99;100.00
6680;BME280;3376;42.664;23.346;2023-10-13T04:49:01;95051.56;;;11.09;100.00
6680;BME280;3376;42.664;23.346;2023-10-13T04:51:36;95055.75;;;11.18;100.00
6680;BME280;3376;42.664;23.346;2023-10-13T04:54:17;95057.22;;;11.20;100.00
6680;BME280;3376;42.664;23.346;2023-10-13T04:56:58;95054.44;;;11.22;100.00
6680;BME280;3376;42.664;23.346;2023-10-13T04:59:43;95061.72;;;11.34;100.00
6680;BME280;3376;42.664;23.346;2023-10-13T05:02:27;95071.22;;;11.50;100.00
6680;BME280;3376;42.664;23.346;2023-10-13T05:05:21;95077.31;;;11.73;100.00
6680;BME280;3376;42.664;23.346;2023-10-13T05:08:05;95080.03;;;11.79;100.00
6680;BME280;3376;42.664;23.346;2023-10-13T05:10:51;95082.44;;;11.89;100.00
6680;BME280;3376;42.664;23.346;2023-10-13T05:13:35;95079.84;;;11.89;100.00
6680;BME280;3376;42.664;23.346;2023-10-13T05:16:20;95089.69;;;12.02;99.73
6680;BME280;3376;42.664;23.346;2023-10-13T05:19:04;95094.38;;;12.06;99.72
6680;BME280;3376;42.664;23.346;2023-10-13T05:21:48;95099.16;;;12.17;99.27
6680;BME280;3376;42.664;23.346;2023-10-13T05:24:32;95097.81;;;12.29;99.83
6680;BME280;3376;42.664;23.346;2023-10-13T05:27:18;95106.72;;;12.57;98.31
6680;BME280;3376;42.664;23.346;2023-10-13T05:30:03;95105.28;;;12.77;96.23
6680;BME280;3376;42.664;23.346;2023-10-13T05:32:47;95111.59;;;13.06;95.66
6680;BME280;3376;42.664;23.346;2023-10-13T05:35:31;95107.22;;;13.35;92.73
6680;BME280;3376;42.664;23.346;2023-10-13T05:38:16;95116.31;;;13.54;90.46
6680;BME280;3376;42.664;23.346;2023-10-13T05:41:02;95098.28;;;13.67;89.64
6680;BME280;3376;42.664;23.346;2023-10-13T05:43:55;95115.97;;;13.86;88.90
6680;BME280;3376;42.664;23.346;2023-10-13T05:46:40;95124.13;;;14.12;88.79
6680;BME280;3376;42.664;23.346;2023-10-13T05:49:36;95120.59;;;14.34;85.71
6680;BME280;3376;42.664;23.346;2023-10-13T05:52:15;95122.47;;;14.61;84.32
6680;BME280;3376;42.664;23.346;2023-10-13T05:54:58;95126.59;;;14.70;83.49
6680;BME280;3376;42.664;23.346;2023-10-13T05:57:43;95115.22;;;14.57;83.64
6680;BME280;3376;42.664;23.346;2023-10-13T06:00:28;95114.91;;;14.66;83.91
6680;BME280;3376;42.664;23.346;2023-10-13T06:03:12;95123.81;;;14.93;82.87
6680;BME280;3376;42.664;23.346;2023-10-13T06:05:56;95117.03;;;15.26;82.54
6680;BME280;3376;42.664;23.346;2023-10-13T06:08:40;95122.53;;;15.59;79.65
6680;BME280;3376;42.664;23.346;2023-10-13T06:11:24;95125.13;;;15.86;80.62
6680;BME280;3376;42.664;23.346;2023-10-13T06:14:08;95135.97;;;16.30;78.41
6680;BME280;3376;42.664;23.346;2023-10-13T06:16:53;95134.53;;;16.62;75.54
6680;BME280;3376;42.664;23.346;2023-10-13T06:19:38;95141.84;;;16.93;74.62
6680;BME280;3376;42.664;23.346;2023-10-13T06:22:24;95142.69;;;17.39;71.77
6680;BME280;3376;42.664;23.346;2023-10-13T06:25:08;95156.38;;;17.87;70.33
6680;BME280;3376;42.664;23.346;2023-10-13T06:27:52;95148.03;;;18.16;66.86
6680;BME280;3376;42.664;23.346;2023-10-13T06:30:36;95157.22;;;18.51;66.51
6680;BME280;3376;42.664;23.346;2023-10-13T06:33:05;95159.88;;;18.89;64.05
6680;BME280;3376;42.664;23.346;2023-10-13T06:35:33;95163.97;;;19.47;62.50
6680;BME280;3376;42.664;23.346;2023-10-13T06:38:00;95166.19;;;20.17;59.04
6680;BME280;3376;42.664;23.346;2023-10-13T06:40:28;95166.19;;;20.17;59.04
6680;BME280;3376;42.664;23.346;2023-10-13T06:43:00;95163.34;;;21.67;54.15
6680;BME280;3376;42.664;23.346;2023-10-13T06:45:42;95166.59;;;22.38;51.69
6680;BME280;3376;42.664;23.346;2023-10-13T06:48:17;95158.94;;;22.88;49.70
6680;BME280;3376;42.664;23.346;2023-10-13T06:50:49;95159.22;;;23.31;47.52
6680;BME280;3376;42.664;23.346;2023-10-13T06:53:17;95162.78;;;23.70;47.48
6680;BME280;3376;42.664;23.346;2023-10-13T06:55:44;95161.00;;;24.08;45.80
6680;BME280;3376;42.664;23.346;2023-10-13T06:58:15;95161.13;;;24.57;44.45
6680;BME280;3376;42.664;23.346;2023-10-13T07:00:49;95157.06;;;24.92;43.00
6680;BME280;3376;42.664;23.346;2023-10-13T07:03:22;95154.50;;;24.97;42.51
6680;BME280;3376;42.664;23.346;2023-10-13T07:05:50;95144.09;;;25.17;42.91
6680;BME280;3376;42.664;23.346;2023-10-13T07:08:19;95136.41;;;25.42;42.23
6680;BME280;3376;42.664;23.346;2023-10-13T07:10:50;95135.81;;;25.67;40.70
6680;BME280;3376;42.664;23.346;2023-10-13T07:13:27;95136.47;;;25.84;40.11
6680;BME280;3376;42.664;23.346;2023-10-13T07:15:54;95143.25;;;26.02;39.81
6680;BME280;3376;42.664;23.346;2023-10-13T07:18:27;95147.53;;;26.49;38.45
6680;BME280;3376;42.664;23.346;2023-10-13T07:21:01;95122.84;;;26.59;37.77
6680;BME280;3376;42.664;23.346;2023-10-13T07:23:35;95158.59;;;26.31;38.48
6680;BME280;3376;42.664;23.346;2023-10-13T07:26:02;95154.41;;;26.45;39.53
6680;BME280;3376;42.664;23.346;2023-10-13T07:28:29;95160.25;;;26.42;38.95
6680;BME280;3376;42.664;23.346;2023-10-13T07:30:56;95147.66;;;26.70;38.12
6680;BME280;3376;42.664;23.346;2023-10-13T07:33:38;95145.56;;;26.77;37.54
6680;BME280;3376;42.664;23.346;2023-10-13T07:36:08;95150.31;;;26.70;37.25
6680;BME280;3376;42.664;23.346;2023-10-13T07:38:44;95141.59;;;26.84;37.04
6680;BME280;3376;42.664;23.346;2023-10-13T07:41:14;95135.06;;;27.22;36.43
6680;BME280;3376;42.664;23.346;2023-10-13T07:43:42;95144.34;;;27.19;36.44
6680;BME280;3376;42.664;23.346;2023-10-13T07:46:10;95138.84;;;27.51;36.11
6680;BME280;3376;42.664;23.346;2023-10-13T07:48:39;95125.00;;;27.54;35.51
6680;BME280;3376;42.664;23.346;2023-10-13T07:51:10;95135.09;;;27.77;35.36
6680;BME280;3376;42.664;23.346;2023-10-13T07:53:41;95130.84;;;27.71;34.87
6680;BME280;3376;42.664;23.346;2023-10-13T07:56:09;95141.50;;;27.61;35.26
6680;BME280;3376;42.664;23.346;2023-10-13T07:58:37;95128.38;;;27.24;35.54
6680;BME280;3376;42.664;23.346;2023-10-13T08:01:13;95126.44;;;26.95;36.31
6680;BME280;3376;42.664;23.346;2023-10-13T08:03:45;95127.88;;;26.55;37.94
6680;BME280;3376;42.664;23.346;2023-10-13T08:06:14;95134.56;;;26.58;37.64
6680;BME280;3376;42.664;23.346;2023-10-13T08:08:54;95125.13;;;26.87;36.80
6680;BME280;3376;42.664;23.346;2023-10-13T08:11:32;95106.25;;;27.04;36.13
6680;BME280;3376;42.664;23.346;2023-10-13T08:14:18;95121.78;;;27.42;35.70
6680;BME280;3376;42.664;23.346;2023-10-13T08:16:49;95112.22;;;27.71;35.16
6680;BME280;3376;42.664;23.346;2023-10-13T08:19:23;95095.66;;;27.89;34.39
6680;BME280;3376;42.664;23.346;2023-10-13T08:21:53;95118.59;;;28.10;33.85
6680;BME280;3376;42.664;23.346;2023-10-13T08:24:23;95135.34;;;28.26;34.06
6680;BME280;3376;42.664;23.346;2023-10-13T08:27:12;95110.03;;;28.23;34.06
6680;BME280;3376;42.664;23.346;2023-10-13T08:29:56;95133.25;;;28.03;34.75
6680;BME280;3376;42.664;23.346;2023-10-13T08:33:05;95128.66;;;27.18;35.91
6680;BME280;3376;42.664;23.346;2023-10-13T08:35:42;95146.41;;;26.87;36.47
6680;BME280;3376;42.664;23.346;2023-10-13T08:38:20;95133.34;;;26.86;36.50
6680;BME280;3376;42.664;23.346;2023-10-13T08:40:58;95124.72;;;27.30;35.96
6680;BME280;3376;42.664;23.346;2023-10-13T08:43:43;95125.28;;;27.93;34.99
6680;BME280;3376;42.664;23.346;2023-10-13T08:46:16;95125.22;;;28.28;34.39
6680;BME280;3376;42.664;23.346;2023-10-13T08:48:57;95117.38;;;28.66;33.57
6680;BME280;3376;42.664;23.346;2023-10-13T08:51:39;95128.34;;;28.50;33.83
6680;BME280;3376;42.664;23.346;2023-10-13T08:54:13;95117.53;;;27.96;34.11
6680;BME280;3376;42.664;23.346;2023-10-13T08:56:47;95103.97;;;27.57;34.50
6680;BME280;3376;42.664;23.346;2023-10-13T08:59:21;95115.94;;;27.50;35.17
6680;BME280;3376;42.664;23.346;2023-10-13T09:01:48;95120.47;;;27.64;35.43
6680;BME280;3376;42.664;23.346;2023-10-13T09:04:26;95127.94;;;27.98;35.00
6680;BME280;3376;42.664;23.346;2023-10-13T09:07:01;95119.59;;;28.34;34.16
6680;BME280;3376;42.664;23.346;2023-10-13T09:09:44;95120.56;;;28.73;33.63
6680;BME280;3376;42.664;23.346;2023-10-13T09:12:26;95121.41;;;29.18;33.04
6680;BME280;3376;42.664;23.346;2023-10-13T09:15:05;95129.25;;;29.48;32.29
6680;BME280;3376;42.664;23.346;2023-10-13T09:17:44;94855.78;;;28.24;31.69
6680;BME280;3376;42.664;23.346;2023-10-13T09:20:15;95116.66;;;30.16;31.27
6680;BME280;3376;42.664;23.346;2023-10-13T09:22:59;95124.22;;;30.37;30.80
6680;BME280;3376;42.664;23.346;2023-10-13T09:25:36;95113.59;;;30.32;30.75
6680;BME280;3376;42.664;23.346;2023-10-13T09:28:03;95113.63;;;30.22;31.06
6680;BME280;3376;42.664;23.346;2023-10-13T09:30:43;95113.47;;;30.42;30.71
6680;BME280;3376;42.664;23.346;2023-10-13T09:33:09;95100.75;;;30.29;30.81
6680;BME280;3376;42.664;23.346;2023-10-13T09:35:43;95105.06;;;29.63;31.17
6680;BME280;3376;42.664;23.346;2023-10-13T09:38:14;95100.38;;;29.50;31.82
6680;BME280;3376;42.664;23.346;2023-10-13T09:40:42;95108.25;;;29.31;32.21
6680;BME280;3376;42.664;23.346;2023-10-13T09:43:16;95095.53;;;28.59;32.90
6680;BME280;3376;42.664;23.346;2023-10-13T09:45:45;95090.78;;;28.51;33.10
6680;BME280;3376;42.664;23.346;2023-10-13T09:48:31;95082.19;;;28.64;33.02
6680;BME280;3376;42.664;23.346;2023-10-13T09:51:01;95076.88;;;28.54;33.25
6680;BME280;3376;42.664;23.346;2023-10-13T09:53:31;95071.94;;;28.18;33.45
6680;BME280;3376;42.664;23.346;2023-10-13T09:56:02;95077.03;;;27.94;33.70
6680;BME280;3376;42.664;23.346;2023-10-13T09:58:41;95070.66;;;27.85;34.77
6680;BME280;3376;42.664;23.346;2023-10-13T10:01:17;95077.88;;;27.74;34.60
6680;BME280;3376;42.664;23.346;2023-10-13T10:03:47;95070.41;;;27.92;34.44
6680;BME280;3376;42.664;23.346;2023-10-13T10:06:22;95069.16;;;28.48;33.38
6680;BME280;3376;42.664;23.346;2023-10-13T10:09:04;95064.97;;;28.90;32.84
6680;BME280;3376;42.664;23.346;2023-10-13T10:12:00;95065.47;;;29.41;31.92
6680;BME280;3376;42.664;23.346;2023-10-13T10:14:42;95070.19;;;29.83;31.08
6680;BME280;3376;42.664;23.346;2023-10-13T10:17:14;95064.69;;;29.98;30.10
6680;BME280;3376;42.664;23.346;2023-10-13T10:19:48;95063.13;;;29.97;29.31
6680;BME280;3376;42.664;23.346;2023-10-13T10:22:26;95058.38;;;30.41;28.53
6680;BME280;3376;42.664;23.346;2023-10-13T10:24:59;95056.63;;;30.74;27.61
6680;BME280;3376;42.664;23.346;2023-10-13T10:27:29;95050.50;;;30.73;27.54
6680;BME280;3376;42.664;23.346;2023-10-13T10:29:56;95043.78;;;31.13;27.49
6680;BME280;3376;42.664;23.346;2023-10-13T10:32:32;58144.53;;;-143.34;100.00
6680;BME280;3376;42.664;23.346;2023-10-13T10:35:07;95043.78;;;31.13;27.49
6680;BME280;3376;42.664;23.346;2023-10-13T10:37:41;95045.59;;;31.18;26.54
6680;BME280;3376;42.664;23.346;2023-10-13T10:40:13;95043.50;;;30.96;26.18
6680;BME280;3376;42.664;23.346;2023-10-13T10:42:58;95038.19;;;31.09;26.53
6680;BME280;3376;42.664;23.346;2023-10-13T10:45:26;95034.63;;;31.51;26.08
6680;BME280;3376;42.664;23.346;2023-10-13T10:47:58;95039.72;;;31.66;26.46
6680;BME280;3376;42.664;23.346;2023-10-13T10:50:25;95041.44;;;31.62;26.17
6680;BME280;3376;42.664;23.346;2023-10-13T10:53:04;95037.69;;;31.77;25.75
6680;BME280;3376;42.664;23.346;2023-10-13T10:55:34;95038.09;;;31.84;25.38
6680;BME280;3376;42.664;23.346;2023-10-13T10:58:02;95039.13;;;31.88;25.52
6680;BME280;3376;42.664;23.346;2023-10-13T11:00:32;95023.94;;;31.65;25.74
6680;BME280;3376;42.664;23.346;2023-10-13T11:03:11;95022.44;;;31.45;26.02
6680;BME280;3376;42.664;23.346;2023-10-13T11:05:45;95012.28;;;31.24;26.03
6680;BME280;3376;42.664;23.346;2023-10-13T11:08:24;95032.22;;;30.99;27.39
6680;BME280;3376;42.664;23.346;2023-10-13T11:10:56;95023.53;;;30.46;28.34
6680;BME280;3376;42.664;23.346;2023-10-13T11:13:25;95018.31;;;30.36;28.14
6680;BME280;3376;42.664;23.346;2023-10-13T11:15:56;94974.34;;;30.00;28.01
6680;BME280;3376;42.664;23.346;2023-10-13T11:18:29;95017.69;;;30.44;27.12
6680;BME280;3376;42.664;23.346;2023-10-13T11:20:59;95016.44;;;30.79;27.12
6680;BME280;3376;42.664;23.346;2023-10-13T11:23:32;95012.31;;;30.86;27.25
6680;BME280;3376;42.664;23.346;2023-10-13T11:26:02;95010.75;;;30.85;26.58
6680;BME280;3376;42.664;23.346;2023-10-13T11:28:29;95007.19;;;30.90;26.69
6680;BME280;3376;42.664;23.346;2023-10-13T11:30:59;94996.97;;;30.73;26.42
6680;BME280;3376;42.664;23.346;2023-10-13T11:33:36;94999.94;;;31.09;26.15
6680;BME280;3376;42.664;23.346;2023-10-13T11:36:07;94999.94;;;31.09;26.31
6680;BME280;3376;42.664;23.346;2023-10-13T11:38:42;94994.22;;;31.16;25.82
6680;BME280;3376;42.664;23.346;2023-10-13T11:41:15;94978.47;;;30.95;25.62
6680;BME280;3376;42.664;23.346;2023-10-13T11:43:45;94987.94;;;31.06;26.18
6680;BME280;3376;42.664;23.346;2023-10-13T11:46:35;94990.38;;;31.40;25.29
6680;BME280;3376;42.664;23.346;2023-10-13T11:49:19;94973.03;;;31.65;25.18
6680;BME280;3376;42.664;23.346;2023-10-13T11:51:57;94978.91;;;31.67;24.93
6680;BME280;3376;42.664;23.346;2023-10-13T11:54:36;94975.31;;;31.58;25.45
6680;BME280;3376;42.664;23.346;2023-10-13T11:57:07;94985.28;;;31.39;25.29
6680;BME280;3376;42.664;23.346;2023-10-13T11:59:34;94986.03;;;31.58;24.73
6680;BME280;3376;42.664;23.346;2023-10-13T12:02:12;94945.16;;;31.52;24.68
6680;BME280;3376;42.664;23.346;2023-10-13T12:04:56;94979.28;;;31.47;24.87
6680;BME280;3376;42.664;23.346;2023-10-13T12:07:25;94974.78;;;31.24;25.10
6680;BME280;3376;42.664;23.346;2023-10-13T12:10:12;94959.50;;;31.10;24.89
6680;BME280;3376;42.664;23.346;2023-10-13T12:12:46;94974.44;;;30.79;25.65
6680;BME280;3376;42.664;23.346;2023-10-13T12:15:19;94956.41;;;30.66;26.52
6680;BME280;3376;42.664;23.346;2023-10-13T12:18:03;94962.97;;;30.55;26.06
6680;BME280;3376;42.664;23.346;2023-10-13T12:20:30;94964.22;;;30.44;26.38
6680;BME280;3376;42.664;23.346;2023-10-13T12:23:01;94954.28;;;30.26;26.32
6680;BME280;3376;42.664;23.346;2023-10-13T12:25:42;94959.91;;;30.25;26.37
6680;BME280;3376;42.664;23.346;2023-10-13T12:28:23;94953.78;;;30.43;26.18
6680;BME280;3376;42.664;23.346;2023-10-13T12:30:53;94958.06;;;30.62;26.68
6680;BME280;3376;42.664;23.346;2023-10-13T12:33:22;94953.03;;;30.79;26.02
6680;BME280;3376;42.664;23.346;2023-10-13T12:35:58;94951.38;;;30.41;26.12
6680;BME280;3376;42.664;23.346;2023-10-13T12:38:41;94950.13;;;30.15;26.86
6680;BME280;3376;42.664;23.346;2023-10-13T12:41:26;94944.19;;;30.18;26.18
6680;BME280;3376;42.664;23.346;2023-10-13T12:44:09;94945.13;;;30.32;25.63
6680;BME280;3376;42.664;23.346;2023-10-13T12:46:54;94940.13;;;30.44;26.03
6680;BME280;3376;42.664;23.346;2023-10-13T12:49:38;94943.94;;;30.57;25.81
6680;BME280;3376;42.664;23.346;2023-10-13T12:52:15;94933.31;;;30.70;25.67
6680;BME280;3376;42.664;23.346;2023-10-13T12:54:45;94862.91;;;30.38;25.70
6680;BME280;3376;42.664;23.346;2023-10-13T12:57:21;94937.25;;;31.10;24.95
6680;BME280;3376;42.664;23.346;2023-10-13T12:59:48;94895.13;;;31.02;24.71
6680;BME280;3376;42.664;23.346;2023-10-13T13:02:18;94935.91;;;31.45;24.88
6680;BME280;3376;42.664;23.346;2023-10-13T13:04:45;94936.22;;;31.57;24.19
6680;BME280;3376;42.664;23.346;2023-10-13T13:07:16;94929.47;;;31.27;24.57
6680;BME280;3376;42.664;23.346;2023-10-13T13:09:43;94928.38;;;31.15;24.70
6680;BME280;3376;42.664;23.346;2023-10-13T13:12:10;94934.13;;;31.22;24.59
6680;BME280;3376;42.664;23.346;2023-10-13T13:14:39;94932.66;;;31.29;24.78
6680;BME280;3376;42.664;23.346;2023-10-13T13:17:11;94934.78;;;31.46;24.33
6680;BME280;3376;42.664;23.346;2023-10-13T13:19:38;94935.22;;;31.53;24.37
6680;BME280;3376;42.664;23.346;2023-10-13T13:22:05;94922.91;;;31.52;24.08
6680;BME280;3376;42.664;23.346;2023-10-13T13:24:37;94937.41;;;31.32;24.34
6680;BME280;3376;42.664;23.346;2023-10-13T13:27:09;94932.44;;;31.26;25.05
6680;BME280;3376;42.664;23.346;2023-10-13T13:29:40;94937.31;;;31.24;24.98
6680;BME280;3376;42.664;23.346;2023-10-13T13:32:07;94935.94;;;31.26;25.00
6680;BME280;3376;42.664;23.346;2023-10-13T13:34:43;94936.88;;;31.17;25.00
6680;BME280;3376;42.664;23.346;2023-10-13T13:37:10;94942.03;;;31.13;24.87
6680;BME280;3376;42.664;23.346;2023-10-13T13:39:38;94935.22;;;30.88;25.14
6680;BME280;3376;42.664;23.346;2023-10-13T13:42:09;94930.56;;;30.57;25.29
6680;BME280;3376;42.664;23.346;2023-10-13T13:44:36;94933.97;;;30.62;25.18
6680;BME280;3376;42.664;23.346;2023-10-13T13:47:04;94937.47;;;30.63;25.50